createdAt,value
2018-08-19T00:01:32.343Z,18.10
2018-08-19T00:03:36.589Z,18.00
2018-08-19T00:05:40.900Z,17.90
2018-08-19T00:07:45.423Z,18.10
2018-08-19T00:09:49.662Z,18.10
2018-08-19T00:11:53.830Z,18.00
2018-08-19T00:13:58.168Z,18.00
2018-08-19T00:16:03.055Z,18.00
2018-08-19T00:18:08.505Z,17.90
2018-08-19T00:20:14.354Z,17.90
2018-08-19T00:22:18.606Z,17.90
2018-08-19T00:24:23.129Z,18.00
2018-08-19T00:26:27.346Z,17.90
2018-08-19T00:28:31.550Z,18.00
2018-08-19T00:30:35.799Z,18.00
2018-08-19T00:32:40.031Z,18.00
2018-08-19T00:34:44.408Z,18.00
2018-08-19T00:36:48.626Z,17.90
2018-08-19T00:38:53.206Z,17.90
2018-08-19T00:40:57.471Z,17.90
2018-08-19T00:43:01.755Z,17.90
2018-08-19T00:45:06.953Z,17.90
2018-08-19T00:47:11.770Z,17.90
2018-08-19T00:49:15.943Z,17.90
2018-08-19T00:51:20.134Z,17.80
2018-08-19T00:53:24.335Z,17.90
2018-08-19T00:55:36.724Z,17.90
2018-08-19T00:57:43.430Z,17.90
2018-08-19T00:59:47.637Z,17.90
2018-08-19T01:01:51.945Z,18.00
2018-08-19T01:03:56.812Z,18.00
2018-08-19T01:06:01.539Z,17.90
2018-08-19T01:08:05.807Z,17.90
2018-08-19T01:10:10.389Z,17.90
2018-08-19T01:12:14.605Z,17.90
2018-08-19T01:14:18.812Z,17.90
2018-08-19T01:16:23.495Z,18.00
2018-08-19T01:18:27.745Z,18.00
2018-08-19T01:20:32.888Z,18.00
2018-08-19T01:22:40.739Z,18.00
2018-08-19T01:24:44.984Z,17.90
2018-08-19T01:26:49.170Z,17.90
2018-08-19T01:28:57.026Z,18.00
2018-08-19T01:31:01.286Z,18.00
2018-08-19T01:33:05.594Z,18.00
2018-08-19T01:35:09.801Z,18.00
2018-08-19T01:37:14.779Z,18.10
2018-08-19T01:39:19.028Z,18.10
2018-08-19T01:41:23.368Z,18.00
2018-08-19T01:43:27.623Z,18.00
2018-08-19T01:45:38.795Z,18.00
2018-08-19T01:47:59.109Z,18.10
2018-08-19T01:50:07.082Z,18.10
2018-08-19T01:52:11.314Z,18.00
2018-08-19T01:54:20.763Z,18.00
2018-08-19T01:56:24.916Z,18.00
2018-08-19T01:58:30.938Z,18.00
2018-08-19T02:00:35.140Z,18.10
2018-08-19T02:02:54.097Z,18.00
2018-08-19T02:04:58.364Z,18.10
2018-08-19T02:07:03.033Z,18.10
2018-08-19T02:09:09.562Z,18.10
2018-08-19T02:11:25.530Z,18.00
2018-08-19T02:13:29.774Z,18.00
2018-08-19T02:15:34.207Z,18.00
2018-08-19T02:17:45.329Z,18.00
2018-08-19T02:19:49.578Z,18.10
2018-08-19T02:21:54.324Z,18.00
2018-08-19T02:23:58.671Z,18.00
2018-08-19T02:26:02.873Z,17.90
2018-08-19T02:28:09.275Z,18.00
2018-08-19T02:30:13.481Z,17.90
2018-08-19T02:32:17.823Z,18.00
2018-08-19T02:34:27.026Z,17.90
2018-08-19T02:36:31.265Z,18.00
2018-08-19T02:38:36.278Z,18.00
2018-08-19T02:40:40.537Z,18.00
2018-08-19T02:42:44.749Z,18.00
2018-08-19T02:44:48.999Z,18.10
2018-08-19T02:46:53.236Z,18.10
2018-08-19T02:48:57.466Z,18.10
2018-08-19T02:51:01.799Z,18.10
2018-08-19T02:53:06.635Z,18.20
2018-08-19T02:55:10.945Z,18.10
2018-08-19T02:57:15.160Z,18.20
2018-08-19T02:59:19.389Z,18.20
2018-08-19T03:01:23.654Z,18.20
2018-08-19T03:03:27.854Z,18.10
2018-08-19T03:05:32.058Z,18.00
2018-08-19T03:07:36.325Z,17.90
2018-08-19T03:09:40.527Z,17.90
2018-08-19T03:11:44.915Z,18.00
2018-08-19T03:13:49.448Z,18.10
2018-08-19T03:15:55.031Z,18.10
2018-08-19T03:17:59.275Z,18.10
2018-08-19T03:20:03.575Z,18.10
2018-08-19T03:22:07.791Z,18.10
2018-08-19T03:24:12.034Z,18.00
2018-08-19T03:26:16.300Z,18.00
2018-08-19T03:28:20.552Z,18.00
2018-08-19T03:30:24.700Z,18.00
2018-08-19T03:32:28.911Z,18.00
2018-08-19T03:34:33.090Z,18.00
2018-08-19T03:36:37.393Z,18.00
2018-08-19T03:38:41.689Z,18.00
2018-08-19T03:40:45.942Z,18.00
2018-08-19T03:42:50.165Z,18.00
2018-08-19T03:44:54.742Z,18.00
2018-08-19T03:46:59.044Z,18.00
2018-08-19T03:49:03.220Z,18.00
2018-08-19T03:51:07.451Z,18.10
2018-08-19T03:53:11.932Z,18.10
2018-08-19T03:55:31.246Z,18.10
2018-08-19T03:57:35.413Z,18.10
2018-08-19T03:59:41.311Z,18.10
2018-08-19T04:01:46.620Z,18.10
2018-08-19T04:03:50.860Z,18.10
2018-08-19T04:05:57.974Z,18.10
2018-08-19T04:08:02.219Z,18.10
2018-08-19T04:10:07.128Z,18.10
2018-08-19T04:12:14.108Z,18.00
2018-08-19T04:14:29.467Z,17.90
2018-08-19T04:16:34.107Z,17.90
2018-08-19T04:18:43.420Z,17.80
2018-08-19T04:20:47.626Z,17.90
2018-08-19T04:22:51.794Z,17.90
2018-08-19T04:24:56.069Z,17.90
2018-08-19T04:27:04.123Z,17.90
2018-08-19T04:29:12.427Z,17.90
2018-08-19T04:31:21.823Z,18.00
2018-08-19T04:33:33.107Z,17.90
2018-08-19T04:35:37.264Z,18.00
2018-08-19T04:37:41.443Z,18.00
2018-08-19T04:39:45.654Z,18.00
2018-08-19T04:41:49.890Z,18.00
2018-08-19T04:43:55.489Z,18.00
2018-08-19T04:46:02.219Z,18.00
2018-08-19T04:48:06.396Z,18.00
2018-08-19T04:50:10.641Z,18.00
2018-08-19T04:52:17.905Z,18.10
2018-08-19T04:54:22.202Z,18.10
2018-08-19T04:56:26.879Z,18.10
2018-08-19T04:58:31.127Z,18.10
2018-08-19T05:00:35.418Z,18.10
2018-08-19T05:02:40.067Z,18.20
2018-08-19T05:04:44.198Z,18.10
2018-08-19T05:06:49.054Z,17.90
2018-08-19T05:08:54.493Z,17.90
2018-08-19T05:10:59.817Z,18.00
2018-08-19T05:13:04.674Z,18.00
2018-08-19T05:15:09.556Z,18.00
2018-08-19T05:17:13.761Z,18.10
2018-08-19T05:19:18.090Z,18.10
2018-08-19T05:21:25.531Z,18.10
2018-08-19T05:23:29.919Z,18.10
2018-08-19T05:25:44.569Z,18.10
2018-08-19T05:27:52.935Z,18.10
2018-08-19T05:29:57.138Z,18.10
2018-08-19T05:32:01.338Z,18.10
2018-08-19T05:34:05.507Z,18.10
2018-08-19T05:36:09.734Z,18.10
2018-08-19T05:38:14.087Z,18.10
2018-08-19T05:40:18.295Z,18.10
2018-08-19T05:42:22.605Z,18.10
2018-08-19T05:44:26.886Z,18.10
2018-08-19T05:46:31.115Z,18.10
2018-08-19T05:48:35.370Z,18.20
2018-08-19T05:50:39.565Z,18.20
2018-08-19T05:52:43.801Z,18.20
2018-08-19T05:54:53.234Z,18.20
2018-08-19T05:57:01.681Z,18.20
2018-08-19T05:59:05.935Z,18.20
2018-08-19T06:01:10.297Z,18.20
2018-08-19T06:03:14.523Z,18.20
2018-08-19T06:05:18.794Z,18.20
2018-08-19T06:07:23.054Z,18.30
2018-08-19T06:09:27.234Z,18.30
2018-08-19T06:11:31.422Z,18.30
2018-08-19T06:13:35.773Z,18.30
2018-08-19T06:15:40.349Z,18.40
2018-08-19T06:17:44.490Z,18.40
2018-08-19T06:19:48.716Z,18.30
2018-08-19T06:21:53.013Z,18.30
2018-08-19T06:23:57.294Z,18.30
2018-08-19T06:26:01.916Z,18.40
2018-08-19T06:28:06.260Z,18.30
2018-08-19T06:30:10.589Z,18.40
2018-08-19T06:32:20.286Z,18.30
2018-08-19T06:34:25.301Z,18.30
2018-08-19T06:36:29.566Z,18.30
2018-08-19T06:38:33.755Z,18.40
2018-08-19T06:40:38.008Z,18.40
2018-08-19T06:42:42.281Z,18.40
2018-08-19T06:44:46.578Z,18.40
2018-08-19T06:46:50.735Z,18.50
2018-08-19T06:48:55.325Z,18.40
2018-08-19T06:50:59.655Z,18.50
2018-08-19T06:53:03.834Z,18.50
2018-08-19T06:55:08.306Z,18.50
2018-08-19T06:57:12.656Z,18.60
2018-08-19T06:59:16.899Z,18.50
2018-08-19T07:01:21.094Z,18.60
2018-08-19T07:03:26.347Z,18.50
2018-08-19T07:05:30.967Z,18.60
2018-08-19T07:07:35.168Z,18.60
2018-08-19T07:09:39.694Z,18.60
2018-08-19T07:12:21.430Z,18.60
2018-08-19T07:14:26.114Z,18.60
2018-08-19T07:16:30.352Z,18.60
2018-08-19T07:18:35.537Z,18.70
2018-08-19T07:20:41.126Z,18.80
2018-08-19T07:22:45.337Z,18.70
2018-08-19T07:24:49.535Z,18.70
2018-08-19T07:26:53.760Z,18.70
2018-08-19T07:28:58.231Z,18.80
2018-08-19T07:31:02.440Z,18.80
2018-08-19T07:33:06.882Z,18.80
2018-08-19T07:35:11.106Z,18.80
2018-08-19T07:37:15.682Z,18.80
2018-08-19T07:39:19.920Z,18.80
2018-08-19T07:41:24.134Z,18.80
2018-08-19T07:43:28.410Z,18.80
2018-08-19T07:45:32.628Z,18.90
2018-08-19T07:47:37.234Z,18.90
2018-08-19T07:49:41.393Z,18.90
2018-08-19T07:51:45.584Z,19.00
2018-08-19T07:53:49.906Z,18.90
2018-08-19T07:55:54.133Z,19.00
2018-08-19T07:57:58.564Z,19.10
2018-08-19T08:00:02.740Z,19.10
2018-08-19T08:02:07.843Z,19.10
2018-08-19T08:04:12.165Z,19.20
2018-08-19T08:06:16.323Z,19.20
2018-08-19T08:08:20.585Z,19.20
2018-08-19T08:10:24.871Z,19.20
2018-08-19T08:12:29.081Z,19.30
2018-08-19T08:14:33.359Z,19.30
2018-08-19T08:16:43.105Z,19.40
2018-08-19T08:18:47.392Z,19.40
2018-08-19T08:20:58.922Z,19.40
2018-08-19T08:23:25.820Z,19.40
2018-08-19T08:25:30.035Z,19.40
2018-08-19T08:27:34.485Z,19.40
2018-08-19T08:29:38.762Z,19.30
2018-08-19T08:31:58.622Z,19.40
2018-08-19T08:34:02.785Z,19.40
2018-08-19T08:36:09.855Z,19.50
2018-08-19T08:38:14.734Z,19.70
2018-08-19T08:40:19.099Z,19.70
2018-08-19T08:42:24.574Z,19.80
2018-08-19T08:44:29.470Z,19.80
2018-08-19T08:46:33.946Z,19.80
2018-08-19T08:48:38.198Z,19.80
2018-08-19T08:50:42.395Z,19.80
2018-08-19T08:52:47.254Z,19.90
2018-08-19T08:54:53.331Z,19.90
2018-08-19T08:56:57.567Z,20.00
2018-08-19T08:59:01.839Z,20.10
2018-08-19T09:01:06.167Z,20.00
2018-08-19T09:03:10.758Z,20.00
2018-08-19T09:05:14.927Z,20.00
2018-08-19T09:07:19.567Z,19.90
2018-08-19T09:09:23.893Z,19.90
2018-08-19T09:11:28.074Z,19.90
2018-08-19T09:13:32.287Z,19.80
2018-08-19T09:15:36.566Z,19.70
2018-08-19T09:17:40.753Z,19.70
2018-08-19T09:19:45.007Z,19.80
2018-08-19T09:21:49.161Z,19.80
2018-08-19T09:23:53.356Z,19.80
2018-08-19T09:25:57.634Z,19.90
2018-08-19T09:28:01.866Z,20.00
2018-08-19T09:30:07.925Z,20.00
2018-08-19T09:32:12.199Z,20.10
2018-08-19T09:34:16.423Z,20.00
2018-08-19T09:36:20.775Z,20.10
2018-08-19T09:38:25.041Z,20.10
2018-08-19T09:40:29.455Z,20.10
2018-08-19T09:42:33.698Z,20.30
2018-08-19T09:44:38.430Z,20.30
2018-08-19T09:46:42.596Z,20.20
2018-08-19T09:48:46.830Z,20.20
2018-08-19T09:50:51.094Z,20.10
2018-08-19T09:52:55.347Z,20.10
2018-08-19T09:55:03.646Z,20.10
2018-08-19T09:57:09.190Z,20.20
2018-08-19T09:59:13.865Z,20.20
2018-08-19T10:01:23.199Z,20.30
2018-08-19T10:03:27.790Z,20.30
2018-08-19T10:05:34.145Z,20.30
2018-08-19T10:07:38.468Z,20.40
2018-08-19T10:09:42.994Z,20.40
2018-08-19T10:11:47.211Z,20.60
2018-08-19T10:13:55.626Z,20.70
2018-08-19T10:15:59.915Z,20.80
2018-08-19T10:18:04.318Z,20.80
2018-08-19T10:20:08.679Z,20.70
2018-08-19T10:22:13.008Z,20.60
2018-08-19T10:24:26.408Z,20.40
2018-08-19T10:26:30.937Z,20.20
2018-08-19T10:28:35.129Z,20.30
2018-08-19T10:30:46.290Z,20.50
2018-08-19T10:32:58.922Z,20.60
2018-08-19T10:35:07.239Z,20.90
2018-08-19T10:37:11.449Z,20.80
2018-08-19T10:39:16.959Z,21.00
2018-08-19T10:41:21.374Z,21.20
2018-08-19T10:43:28.349Z,21.40
2018-08-19T10:45:32.868Z,21.40
2018-08-19T10:47:37.160Z,21.50
2018-08-19T10:49:41.839Z,21.50
2018-08-19T10:51:46.873Z,21.50
2018-08-19T10:53:51.082Z,21.40
2018-08-19T10:55:59.434Z,21.50
2018-08-19T10:58:03.662Z,21.50
2018-08-19T11:00:16.722Z,21.50
2018-08-19T11:02:20.978Z,21.40
2018-08-19T11:04:25.243Z,21.50
2018-08-19T11:06:29.533Z,21.70
2018-08-19T11:08:33.785Z,21.50
2018-08-19T11:10:38.047Z,21.50
2018-08-19T11:12:42.271Z,21.50
2018-08-19T11:14:46.518Z,21.60
2018-08-19T11:16:50.726Z,21.80
2018-08-19T11:18:55.407Z,21.80
2018-08-19T11:22:04.286Z,21.90
2018-08-19T11:24:27.658Z,22.20
2018-08-19T11:26:31.895Z,22.00
2018-08-19T11:28:47.661Z,22.00
2018-08-19T11:30:52.279Z,22.20
2018-08-19T11:32:56.495Z,22.10
2018-08-19T11:35:00.923Z,22.00
2018-08-19T11:37:05.147Z,22.00
2018-08-19T11:39:10.931Z,22.00
2018-08-19T11:41:15.214Z,22.20
2018-08-19T11:43:19.427Z,22.20
2018-08-19T11:45:23.594Z,22.40
2018-08-19T11:47:27.841Z,22.50
2018-08-19T11:49:32.046Z,22.60
2018-08-19T11:51:45.566Z,22.60
2018-08-19T11:53:49.783Z,22.40
2018-08-19T11:55:53.987Z,22.30
2018-08-19T11:57:58.282Z,22.30
2018-08-19T12:00:02.490Z,22.30
2018-08-19T12:02:09.597Z,22.30
2018-08-19T12:04:13.773Z,22.70
2018-08-19T12:06:18.057Z,22.80
2018-08-19T12:08:22.265Z,22.90
2018-08-19T12:10:26.514Z,22.90
2018-08-19T12:12:43.474Z,22.80
2018-08-19T12:14:47.673Z,22.80
2018-08-19T12:16:57.264Z,22.60
2018-08-19T12:19:07.638Z,22.70
2018-08-19T12:21:11.821Z,22.90
2018-08-19T12:23:16.098Z,23.20
2018-08-19T12:25:20.319Z,23.30
2018-08-19T12:27:24.625Z,23.30
2018-08-19T12:29:29.851Z,23.10
2018-08-19T12:31:34.823Z,22.90
2018-08-19T12:33:39.090Z,22.70
2018-08-19T12:35:43.296Z,22.70
2018-08-19T12:37:47.590Z,22.90
2018-08-19T12:39:52.253Z,23.00
2018-08-19T12:41:56.510Z,22.90
2018-08-19T12:44:01.059Z,22.90
2018-08-19T12:46:05.326Z,23.30
2018-08-19T12:48:09.582Z,23.00
2018-08-19T12:50:15.214Z,23.10
2018-08-19T12:52:21.816Z,23.80
2018-08-19T12:54:26.027Z,23.90
2018-08-19T12:56:30.438Z,24.10
2018-08-19T12:58:34.674Z,23.80
2018-08-19T13:00:38.907Z,24.10
2018-08-19T13:02:44.181Z,24.00
2018-08-19T13:04:48.401Z,23.80
2018-08-19T13:07:02.177Z,24.10
2018-08-19T13:09:07.482Z,24.30
2018-08-19T13:11:11.659Z,24.50
2018-08-19T13:13:15.814Z,24.80
2018-08-19T13:15:20.138Z,24.60
2018-08-19T13:17:24.297Z,24.80
2018-08-19T13:19:29.090Z,23.90
2018-08-19T13:21:33.319Z,24.30
2018-08-19T13:23:37.683Z,23.50
2018-08-19T13:25:41.896Z,23.40
2018-08-19T13:27:46.182Z,23.20
2018-08-19T13:29:50.335Z,22.80
2018-08-19T13:31:54.596Z,23.30
2018-08-19T13:33:58.743Z,23.80
2018-08-19T13:36:02.943Z,24.40
2018-08-19T13:38:07.251Z,24.80
2018-08-19T13:40:12.732Z,24.10
2018-08-19T13:42:16.953Z,23.70
2018-08-19T13:44:21.160Z,23.40
2018-08-19T13:46:25.442Z,23.40
2018-08-19T13:48:29.703Z,23.60
2018-08-19T13:50:33.920Z,23.50
2018-08-19T13:52:38.515Z,23.20
2018-08-19T13:54:56.415Z,22.90
2018-08-19T13:57:00.587Z,23.00
2018-08-19T13:59:05.023Z,23.10
2018-08-19T14:01:09.198Z,22.70
2018-08-19T14:03:13.428Z,22.60
2018-08-19T14:05:17.613Z,22.60
2018-08-19T14:07:22.386Z,22.40
2018-08-19T14:09:26.582Z,22.50
2018-08-19T14:11:30.751Z,22.40
2018-08-19T14:13:34.962Z,22.40
2018-08-19T14:15:39.223Z,22.20
2018-08-19T14:17:43.823Z,22.30
2018-08-19T14:19:48.010Z,22.40
2018-08-19T14:21:52.259Z,22.30
2018-08-19T14:23:56.468Z,22.10
2018-08-19T14:26:00.974Z,22.10
2018-08-19T14:28:05.286Z,22.10
2018-08-19T14:30:11.091Z,22.20
2018-08-19T14:32:29.161Z,22.20
2018-08-19T14:34:33.311Z,22.30
2018-08-19T14:36:37.505Z,22.20
2018-08-19T14:38:41.730Z,22.20
2018-08-19T14:40:45.995Z,22.30
2018-08-19T14:42:50.327Z,22.30
2018-08-19T14:44:54.879Z,22.30
2018-08-19T14:46:59.059Z,22.30
2018-08-19T14:49:04.557Z,22.20
2018-08-19T14:51:08.927Z,22.10
2018-08-19T14:53:13.176Z,22.10
2018-08-19T14:55:17.430Z,22.10
2018-08-19T14:57:21.898Z,22.20
2018-08-19T14:59:26.115Z,22.10
2018-08-19T15:01:30.303Z,22.00
2018-08-19T15:03:34.686Z,22.10
2018-08-19T15:05:38.888Z,22.00
2018-08-19T15:07:43.128Z,22.00
2018-08-19T15:09:54.781Z,21.90
2018-08-19T15:12:06.198Z,21.80
2018-08-19T15:14:19.696Z,21.80
2018-08-19T15:16:23.939Z,21.70
2018-08-19T15:18:28.255Z,21.80
2018-08-19T15:20:34.221Z,21.70
2018-08-19T15:22:38.449Z,21.70
2018-08-19T15:24:42.710Z,21.70
2018-08-19T15:26:47.374Z,21.60
2018-08-19T15:28:51.544Z,21.70
2018-08-19T15:30:55.828Z,21.80
2018-08-19T15:33:00.308Z,21.70
2018-08-19T15:35:04.414Z,21.70
2018-08-19T15:37:17.155Z,21.70
2018-08-19T15:39:21.321Z,21.60
2018-08-19T15:41:25.562Z,21.60
2018-08-19T15:43:30.890Z,21.60
2018-08-19T15:45:36.287Z,21.60
2018-08-19T15:47:40.608Z,21.60
2018-08-19T15:49:44.794Z,21.50
2018-08-19T15:51:49.029Z,21.60
2018-08-19T15:53:53.249Z,21.50
2018-08-19T15:55:57.585Z,21.60
2018-08-19T15:58:03.299Z,21.50
2018-08-19T16:00:08.437Z,21.50
2018-08-19T16:02:12.717Z,21.60
2018-08-19T16:04:18.121Z,21.60
2018-08-19T16:06:22.452Z,21.60
2018-08-19T16:08:26.746Z,21.60
2018-08-19T16:10:31.063Z,21.70
2018-08-19T16:12:36.646Z,21.60
2018-08-19T16:14:40.840Z,21.60
2018-08-19T16:16:45.044Z,21.60
2018-08-19T16:18:49.250Z,21.60
2018-08-19T16:20:58.447Z,21.60
2018-08-19T16:23:02.722Z,21.60
2018-08-19T16:25:06.995Z,21.50
2018-08-19T16:27:11.263Z,21.50
2018-08-19T16:29:15.678Z,21.50
2018-08-19T16:31:19.908Z,21.50
2018-08-19T16:33:24.142Z,21.50
2018-08-19T16:35:28.370Z,21.50
2018-08-19T16:37:32.596Z,21.70
2018-08-19T16:39:36.825Z,21.60
2018-08-19T16:41:41.083Z,21.60
2018-08-19T16:43:45.265Z,21.50
2018-08-19T16:45:49.503Z,21.50
2018-08-19T16:47:53.804Z,21.40
2018-08-19T16:49:58.098Z,21.40
2018-08-19T16:52:02.707Z,21.40
2018-08-19T16:54:07.352Z,21.40
2018-08-19T16:56:11.579Z,21.40
2018-08-19T16:58:16.291Z,21.40
2018-08-19T17:00:20.591Z,21.40
2018-08-19T17:02:24.874Z,21.40
2018-08-19T17:04:29.050Z,21.40
2018-08-19T17:06:33.215Z,21.40
2018-08-19T17:08:37.542Z,21.40
2018-08-19T17:10:41.702Z,21.40
2018-08-19T17:12:45.868Z,21.50
2018-08-19T17:14:50.065Z,21.50
2018-08-19T17:16:54.291Z,21.40
2018-08-19T17:18:58.493Z,21.40
2018-08-19T17:21:02.869Z,21.40
2018-08-19T17:23:06.961Z,21.40
2018-08-19T17:25:11.237Z,21.40
2018-08-19T17:27:15.449Z,21.40
2018-08-19T17:29:20.057Z,21.40
2018-08-19T17:31:24.282Z,21.40
2018-08-19T17:33:30.607Z,21.40
2018-08-19T17:35:34.905Z,21.40
2018-08-19T17:37:39.057Z,21.40
2018-08-19T17:39:43.462Z,21.30
2018-08-19T17:41:47.608Z,21.40
2018-08-19T17:43:51.845Z,21.30
2018-08-19T17:46:00.125Z,21.30
2018-08-19T17:48:04.547Z,21.30
2018-08-19T17:50:10.607Z,21.30
2018-08-19T17:52:14.790Z,21.30
2018-08-19T17:54:24.030Z,21.30
2018-08-19T17:56:28.218Z,21.30
2018-08-19T17:58:32.390Z,21.30
2018-08-19T18:00:36.534Z,21.30
2018-08-19T18:02:40.741Z,21.30
2018-08-19T18:04:47.238Z,21.30
2018-08-19T18:06:51.489Z,21.30
2018-08-19T18:08:55.763Z,21.20
2018-08-19T18:10:59.991Z,21.30
2018-08-19T18:13:04.235Z,21.30
2018-08-19T18:15:09.995Z,21.30
2018-08-19T18:17:14.269Z,21.30
2018-08-19T18:19:18.537Z,21.20
2018-08-19T18:21:22.791Z,21.20
2018-08-19T18:23:27.410Z,21.20
2018-08-19T18:25:31.636Z,21.20
2018-08-19T18:27:35.882Z,21.20
2018-08-19T18:29:42.851Z,21.20
2018-08-19T18:31:50.086Z,21.20
2018-08-19T18:34:00.536Z,21.20
2018-08-19T18:36:07.734Z,21.20
2018-08-19T18:38:26.171Z,21.20
2018-08-19T18:40:32.827Z,21.10
2018-08-19T18:42:39.506Z,21.10
2018-08-19T18:44:43.757Z,21.10
2018-08-19T18:46:48.063Z,21.10
2018-08-19T18:49:14.661Z,21.10
2018-08-19T18:51:18.976Z,21.00
2018-08-19T18:53:23.942Z,21.10
2018-08-19T18:55:28.193Z,21.10
2018-08-19T18:57:32.492Z,21.00
2018-08-19T18:59:41.076Z,20.90
2018-08-19T19:01:45.267Z,21.00
2018-08-19T19:03:49.461Z,21.00
2018-08-19T19:05:53.639Z,20.90
2018-08-19T19:08:01.823Z,21.00
2018-08-19T19:10:07.107Z,20.90
2018-08-19T19:12:11.424Z,20.90
2018-08-19T19:14:20.538Z,20.90
2018-08-19T19:16:33.997Z,20.80
2018-08-19T19:18:38.259Z,20.90
2018-08-19T19:20:49.436Z,20.90
2018-08-19T19:22:58.664Z,20.90
2018-08-19T19:25:02.856Z,20.90
2018-08-19T19:27:08.476Z,20.90
2018-08-19T19:29:17.762Z,20.80
2018-08-19T19:31:23.251Z,20.70
2018-08-19T19:33:27.477Z,20.70
2018-08-19T19:35:31.730Z,20.70
2018-08-19T19:37:35.982Z,20.70
2018-08-19T19:39:40.301Z,20.70
2018-08-19T19:41:44.424Z,20.60
2018-08-19T19:43:48.569Z,20.70
2018-08-19T19:45:53.600Z,20.70
2018-08-19T19:47:58.140Z,20.60
2018-08-19T19:50:02.493Z,20.60
2018-08-19T19:52:06.672Z,20.70
2018-08-19T19:54:10.798Z,20.50
2018-08-19T19:56:17.219Z,20.50
2018-08-19T19:58:21.455Z,20.50
2018-08-19T20:00:25.658Z,20.50
2018-08-19T20:02:30.599Z,20.50
2018-08-19T20:04:36.706Z,20.40
2018-08-19T20:06:40.895Z,20.40
2018-08-19T20:08:45.313Z,20.40
2018-08-19T20:10:49.503Z,20.40
2018-08-19T20:12:53.811Z,20.40
2018-08-19T20:15:00.271Z,20.40
2018-08-19T20:17:04.621Z,20.40
2018-08-19T20:19:08.970Z,20.40
2018-08-19T20:21:18.188Z,20.40
2018-08-19T20:23:24.647Z,20.40
2018-08-19T20:25:28.914Z,20.40
2018-08-19T20:27:33.173Z,20.40
2018-08-19T20:29:37.352Z,20.40
2018-08-19T20:31:41.575Z,20.30
2018-08-19T20:33:45.894Z,20.40
2018-08-19T20:35:50.049Z,20.20
2018-08-19T20:37:55.427Z,20.20
2018-08-19T20:39:59.671Z,20.30
2018-08-19T20:42:03.954Z,20.40
2018-08-19T20:44:09.202Z,20.40
2018-08-19T20:46:13.393Z,20.30
2018-08-19T20:48:20.026Z,20.30
2018-08-19T20:50:24.263Z,20.30
2018-08-19T20:52:47.390Z,20.40
2018-08-19T20:54:51.587Z,20.20
2018-08-19T20:56:55.798Z,20.30
2018-08-19T20:59:00.134Z,20.30
2018-08-19T21:01:04.448Z,20.30
2018-08-19T21:03:09.182Z,20.30
2018-08-19T21:05:13.591Z,20.20
2018-08-19T21:07:17.782Z,20.20
2018-08-19T21:09:21.999Z,20.20
2018-08-19T21:11:26.263Z,20.10
2018-08-19T21:13:30.614Z,20.00
2018-08-19T21:15:37.453Z,20.00
2018-08-19T21:17:41.714Z,20.10
2018-08-19T21:19:52.566Z,20.10
2018-08-19T21:21:56.970Z,20.10
2018-08-19T21:24:01.476Z,20.00
2018-08-19T21:26:05.971Z,20.00
2018-08-19T21:28:10.238Z,20.00
2018-08-19T21:30:14.451Z,20.10
2018-08-19T21:32:18.850Z,20.10
2018-08-19T21:34:23.062Z,20.00
2018-08-19T21:36:27.306Z,20.00
2018-08-19T21:38:31.606Z,20.00
2018-08-19T21:40:38.006Z,20.00
2018-08-19T21:42:54.220Z,20.00
2018-08-19T21:45:00.098Z,20.00
2018-08-19T21:47:05.054Z,19.80
2018-08-19T21:49:09.871Z,20.00
2018-08-19T21:51:14.066Z,19.90
2018-08-19T21:53:19.402Z,19.80
2018-08-19T21:55:23.581Z,19.90
2018-08-19T21:57:27.812Z,19.80
2018-08-19T21:59:32.090Z,19.70
2018-08-19T22:01:36.364Z,19.80
2018-08-19T22:03:45.604Z,19.80
2018-08-19T22:05:52.205Z,19.80
2018-08-19T22:07:56.490Z,19.90
2018-08-19T22:10:00.694Z,19.90
2018-08-19T22:12:06.221Z,19.80
2018-08-19T22:14:12.704Z,19.80
2018-08-19T22:16:17.118Z,19.70
2018-08-19T22:18:22.550Z,19.90
2018-08-19T22:20:30.242Z,19.80
2018-08-19T22:22:34.434Z,19.70
2018-08-19T22:24:38.843Z,19.70
2018-08-19T22:26:43.224Z,19.60
2018-08-19T22:29:19.897Z,19.70
2018-08-19T22:31:27.006Z,19.80
2018-08-19T22:33:31.371Z,19.70
2018-08-19T22:35:35.644Z,19.70
2018-08-19T22:37:39.889Z,19.80
2018-08-19T22:39:44.336Z,19.90
2018-08-19T22:41:51.287Z,19.80
2018-08-19T22:43:56.384Z,19.80
2018-08-19T22:46:00.632Z,19.60
2018-08-19T22:48:04.894Z,19.50
2018-08-19T22:50:09.141Z,19.50
2018-08-19T22:52:20.586Z,19.60
2018-08-19T22:54:24.791Z,19.60
2018-08-19T22:56:28.939Z,19.60
2018-08-19T22:58:33.240Z,19.50
2018-08-19T23:00:37.439Z,19.50
2018-08-19T23:02:41.812Z,19.40
2018-08-19T23:04:46.642Z,19.50
2018-08-19T23:06:50.900Z,19.50
2018-08-19T23:08:55.102Z,19.40
2018-08-19T23:11:00.383Z,19.40
2018-08-19T23:14:13.969Z,19.40
2018-08-19T23:16:18.769Z,19.40
2018-08-19T23:18:23.068Z,19.50
2018-08-19T23:20:27.306Z,19.50
2018-08-19T23:22:31.484Z,19.50
2018-08-19T23:24:35.730Z,19.50
2018-08-19T23:26:40.030Z,19.50
2018-08-19T23:28:44.221Z,19.40
2018-08-19T23:30:48.748Z,19.40
2018-08-19T23:32:53.003Z,19.40
2018-08-19T23:34:57.262Z,19.20
2018-08-19T23:37:01.466Z,19.20
2018-08-19T23:39:07.453Z,19.30
2018-08-19T23:41:11.720Z,19.20
2018-08-19T23:43:16.621Z,19.30
2018-08-19T23:45:20.943Z,19.40
2018-08-19T23:47:25.146Z,19.30
2018-08-19T23:49:29.337Z,19.40
2018-08-19T23:51:33.570Z,19.30
2018-08-19T23:53:37.778Z,19.30
2018-08-19T23:55:42.094Z,19.30
2018-08-19T23:57:46.295Z,19.20
2018-08-19T23:59:50.467Z,19.40
